^^
Station Historical Data
 
Daily Summary for September 20, 2014 Units:  English    Metric   Both
« Previous Day
Next Day »
Daily Weekly Monthly Yearly Custom
  Current: High: Low: Average:
Temperature: 80.4 °F 80.4 °F 70.1 °F 72.4 °F
Dew Point: 72.9 °F 72.9 °F 68.9 °F 70.6 °F
Humidity: 78% 97% 76% 94%
Wind Speed: 3.0mph 4.0mph 0.0mph 1mph
Wind Gust: 7.0mph 10.0mph - -
WindWest - - SSE
Pressure: 29.87 in 29.98 in 29.87 in -
Precipitation: 0.23 in      
Historical Graphs
 
 
Tabular Data for September 20, 2014
Time Temperature Dew Point Pressure Wind Wind Speed Wind Gust Humidity Rainfall Rate (Hourly) solar Conditions
00:03 71.0 °F 69.5 °F 29.98 in ENE 1.0 mph 2.0 mph 95% 0.02 in VWS V14.01 W/m2
00:08 71.0 °F 69.8 °F 29.98 in Calm   4.0 mph 96% 0.03 in VWS V14.01 W/m2
00:13 71.1 °F 69.9 °F 29.98 in ENE 1.0 mph 2.0 mph 96% 0.03 in VWS V14.01 W/m2
00:18 71.2 °F 70.0 °F 29.97 in ENE 2.0 mph 2.0 mph 96% 0.04 in VWS V14.01 W/m2
00:23 71.2 °F 70.0 °F 29.97 in ENE 1.0 mph 4.0 mph 96% 0.04 in VWS V14.01 W/m2
00:28 71.1 °F 69.9 °F 29.97 in East 1.0 mph 4.0 mph 96% 0.05 in VWS V14.01 W/m2
00:33 71.1 °F 69.9 °F 29.97 in ENE 1.0 mph 3.0 mph 96% 0.05 in VWS V14.01 W/m2
00:38 71.1 °F 69.9 °F 29.97 in NE 3.0 mph 5.0 mph 96% 0.05 in VWS V14.01 W/m2
00:43 71.2 °F 70.0 °F 29.96 in Calm   2.0 mph 96% 0.06 in VWS V14.01 W/m2
00:48 71.2 °F 70.0 °F 29.96 in NE 2.0 mph 4.0 mph 96% 0.06 in VWS V14.01 W/m2
00:53 71.2 °F 70.0 °F 29.96 in NE 2.0 mph 3.0 mph 96% 0.05 in VWS V14.01 W/m2
00:58 71.2 °F 70.0 °F 29.96 in NE 2.0 mph 4.0 mph 96% 0.05 in VWS V14.01 W/m2
01:03 71.2 °F 70.0 °F 29.96 in ENE 2.0 mph 4.0 mph 96% 0.05 in VWS V14.01 W/m2
01:08 71.2 °F 70.0 °F 29.95 in ENE 2.0 mph 4.0 mph 96% 0.05 in VWS V14.01 W/m2
01:13 71.2 °F 70.0 °F 29.95 in Calm   2.0 mph 96% 0.04 in VWS V14.01 W/m2
01:18 71.1 °F 69.9 °F 29.95 in East 1.0 mph 2.0 mph 96% 0.04 in VWS V14.01 W/m2
01:23 71.1 °F 69.9 °F 29.95 in Calm   2.0 mph 96% 0.03 in VWS V14.01 W/m2
01:28 71.0 °F 69.8 °F 29.95 in Calm   4.0 mph 96% 0.03 in VWS V14.01 W/m2
01:33 71.1 °F 69.9 °F 29.94 in ENE 2.0 mph 2.0 mph 96% 0.02 in VWS V14.01 W/m2
01:38 71.0 °F 69.8 °F 29.94 in Calm   3.0 mph 96% 0.03 in VWS V14.01 W/m2
01:43 71.1 °F 69.9 °F 29.94 in ENE 1.0 mph 2.0 mph 96% 0.03 in VWS V14.01 W/m2
01:48 70.9 °F 69.7 °F 29.94 in ENE 1.0 mph 3.0 mph 96% 0.03 in VWS V14.01 W/m2
01:53 70.8 °F 69.6 °F 29.94 in Calm   4.0 mph 96% 0.02 in VWS V14.01 W/m2
01:58 70.7 °F 69.5 °F 29.93 in East 2.0 mph 5.0 mph 96% 0.02 in VWS V14.01 W/m2
02:03 70.7 °F 69.5 °F 29.93 in Calm   1.0 mph 96% 0.01 in VWS V14.01 W/m2
02:08 70.6 °F 69.4 °F 29.93 in Calm   3.0 mph 96% 0.01 in VWS V14.01 W/m2
02:13 70.6 °F 69.4 °F 29.93 in ENE 2.0 mph 2.0 mph 96% 0.01 in VWS V14.01 W/m2
02:18 70.7 °F 69.5 °F 29.92 in Calm   2.0 mph 96% 0.01 in VWS V14.01 W/m2
02:23 70.7 °F 69.5 °F 29.92 in Calm   2.0 mph 96% 0.01 in VWS V14.01 W/m2
02:28 70.6 °F 69.4 °F 29.92 in NE 1.0 mph 2.0 mph 96% 0.01 in VWS V14.01 W/m2
02:33 70.6 °F 69.4 °F 29.92 in Calm   1.0 mph 96% 0.02 in VWS V14.01 W/m2
02:38 70.6 °F 69.7 °F 29.91 in Calm   2.0 mph 97% 0.02 in VWS V14.01 W/m2
02:43 70.5 °F 69.3 °F 29.91 in Calm   3.0 mph 96% 0.01 in VWS V14.01 W/m2
02:48 70.4 °F 69.2 °F 29.91 in ENE 3.0 mph 3.0 mph 96% 0.01 in VWS V14.01 W/m2
02:53 70.4 °F 69.2 °F 29.91 in ENE 1.0 mph 2.0 mph 96% 0.01 in VWS V14.01 W/m2
02:58 70.4 °F 69.5 °F 29.90 in NE 2.0 mph 3.0 mph 97% 0.01 in VWS V14.01 W/m2
03:03 70.4 °F 69.2 °F 29.90 in NE 3.0 mph 4.0 mph 96% 0.01 in VWS V14.01 W/m2
03:08 70.3 °F 69.1 °F 29.90 in East 1.0 mph 4.0 mph 96% 0.01 in VWS V14.01 W/m2
03:13 70.3 °F 69.1 °F 29.90 in ENE 3.0 mph 5.0 mph 96% 0.01 in VWS V14.01 W/m2
03:18 70.2 °F 69.0 °F 29.89 in NE 1.0 mph 5.0 mph 96% 0.01 in VWS V14.01 W/m2
03:23 70.1 °F 68.9 °F 29.89 in ENE 2.0 mph 5.0 mph 96% 0.01 in VWS V14.01 W/m2
03:28 70.1 °F 68.9 °F 29.89 in ENE 2.0 mph 5.0 mph 96% 0.02 in VWS V14.01 W/m2
03:33 70.1 °F 69.2 °F 29.89 in Calm   2.0 mph 97% 0.01 in VWS V14.01 W/m2
03:38 70.1 °F 68.9 °F 29.88 in Calm   4.0 mph 96% 0.01 in VWS V14.01 W/m2
03:43 70.1 °F 68.9 °F 29.88 in ENE 1.0 mph 3.0 mph 96% 0.01 in VWS V14.01 W/m2
03:48 70.1 °F 69.2 °F 29.88 in Calm   3.0 mph 97% 0.01 in VWS V14.01 W/m2
03:53 70.2 °F 69.3 °F 29.88 in NE 1.0 mph 2.0 mph 97% 0.01 in VWS V14.01 W/m2
03:58 70.2 °F 69.3 °F 29.88 in Calm   3.0 mph 97% 0.01 in VWS V14.01 W/m2
04:03 70.1 °F 69.2 °F 29.88 in NE 2.0 mph 4.0 mph 97% 0.01 in VWS V14.01 W/m2
04:08 70.1 °F 69.2 °F 29.88 in East 1.0 mph 4.0 mph 97% 0.01 in VWS V14.01 W/m2
04:13 70.1 °F 69.2 °F 29.88 in Calm   3.0 mph 97% 0.01 in VWS V14.01 W/m2
04:18 70.1 °F 69.2 °F 29.88 in NE 1.0 mph 3.0 mph 97% 0.01 in VWS V14.01 W/m2
04:23 70.2 °F 69.3 °F 29.88 in Calm   2.0 mph 97% 0.01 in VWS V14.01 W/m2
04:28 70.2 °F 69.3 °F 29.88 in Calm   2.0 mph 97% 0.01 in VWS V14.01 W/m2
04:33 70.2 °F 69.3 °F 29.88 in Calm   1.0 mph 97% 0.00 in VWS V14.01 W/m2
04:38 70.3 °F 69.4 °F 29.88 in Calm   1.0 mph 97% 0.00 in VWS V14.01 W/m2
04:43 70.3 °F 69.4 °F 29.88 in ENE 1.0 mph 1.0 mph 97% 0.00 in VWS V14.01 W/m2
04:48 70.3 °F 69.4 °F 29.88 in ENE 1.0 mph 3.0 mph 97% 0.00 in VWS V14.01 W/m2
04:53 70.4 °F 69.5 °F 29.88 in NE 1.0 mph 2.0 mph 97% 0.00 in VWS V14.01 W/m2
04:58 70.4 °F 69.5 °F 29.88 in Calm   3.0 mph 97% 0.00 in VWS V14.01 W/m2
05:03 70.5 °F 69.6 °F 29.88 in Calm   3.0 mph 97% 0.01 in VWS V14.01 W/m2
05:08 70.5 °F 69.6 °F 29.88 in East 1.0 mph 4.0 mph 97% 0.01 in VWS V14.01 W/m2
05:13 70.6 °F 69.7 °F 29.88 in Calm   3.0 mph 97% 0.01 in VWS V14.01 W/m2
05:18 70.6 °F 69.7 °F 29.88 in Calm   3.0 mph 97% 0.01 in VWS V14.01 W/m2
05:23 70.6 °F 69.7 °F 29.88 in ENE 2.0 mph 2.0 mph 97% 0.01 in VWS V14.01 W/m2
05:28 70.7 °F 69.8 °F 29.88 in ESE 1.0 mph 2.0 mph 97% 0.01 in VWS V14.01 W/m2
05:33 70.7 °F 69.8 °F 29.88 in Calm   1.0 mph 97% 0.01 in VWS V14.01 W/m2
05:38 70.7 °F 69.8 °F 29.88 in Calm   1.0 mph 97% 0.01 in VWS V14.01 W/m2
05:43 70.7 °F 69.8 °F 29.88 in Calm   1.0 mph 97% 0.01 in VWS V14.01 W/m2
05:48 70.7 °F 69.8 °F 29.88 in Calm   1.0 mph 97% 0.01 in VWS V14.01 W/m2
05:53 70.7 °F 69.8 °F 29.88 in Calm     97% 0.01 in VWS V14.01 W/m2
05:58 70.7 °F 69.8 °F 29.88 in Calm     97% 0.01 in VWS V14.01 W/m2
06:03 70.7 °F 69.8 °F 29.88 in Calm   1.0 mph 97% 0.00 in VWS V14.01 W/m2
06:08 70.7 °F 69.8 °F 29.88 in Calm   1.0 mph 97% 0.00 in VWS V14.01 W/m2
06:13 70.8 °F 69.9 °F 29.88 in Calm     97% 0.00 in VWS V14.01 W/m2
06:18 70.9 °F 70.0 °F 29.88 in Calm   1.0 mph 97% 0.00 in VWS V14.01 W/m2
06:23 70.9 °F 70.0 °F 29.88 in Calm     97% 0.00 in VWS V14.01 W/m2
06:28 70.9 °F 70.0 °F 29.88 in Calm     97% 0.00 in VWS V14.01 W/m2
06:33 70.9 °F 70.0 °F 29.89 in Calm     97% 0.00 in VWS V14.01 W/m2
06:38 71.0 °F 70.1 °F 29.89 in Calm     97% 0.00 in VWS V14.01 W/m2
06:43 71.0 °F 70.1 °F 29.89 in Calm     97% 0.00 in VWS V14.01 W/m2
06:48 71.0 °F 70.1 °F 29.89 in Calm     97% 0.00 in VWS V14.01 W/m2
06:53 71.0 °F 70.1 °F 29.88 in Calm     97% 0.00 in VWS V14.01 W/m2
06:58 71.0 °F 70.1 °F 29.88 in Calm     97% 0.00 in VWS V14.01 W/m2
07:03 71.1 °F 70.2 °F 29.89 in Calm     97% 0.00 in VWS V14.01 W/m2
07:08 71.1 °F 70.2 °F 29.89 in Calm   1.0 mph 97% 0.00 in VWS V14.01 W/m2
07:13 71.2 °F 70.3 °F 29.89 in Calm     97% 0.00 in VWS V14.01 W/m2
07:18 71.2 °F 70.3 °F 29.89 in Calm   1.0 mph 97% 0.00 in VWS V14.01 W/m2
07:23 71.2 °F 70.3 °F 29.89 in Calm     97% 0.00 in VWS V14.01 W/m2
07:28 71.2 °F 70.3 °F 29.89 in Calm   1.0 mph 97% 0.00 in VWS V14.01 W/m2
07:33 71.3 °F 70.4 °F 29.89 in Calm     97% 0.00 in VWS V14.01 W/m2
07:38 71.3 °F 70.4 °F 29.89 in Calm   1.0 mph 97% 0.00 in VWS V14.01 W/m2
07:43 71.4 °F 70.5 °F 29.89 in Calm   1.0 mph 97% 0.01 in VWS V14.01 W/m2
07:48 71.4 °F 70.5 °F 29.89 in Calm   1.0 mph 97% 0.01 in VWS V14.01 W/m2
07:53 71.5 °F 70.6 °F 29.89 in Calm   1.0 mph 97% 0.01 in VWS V14.01 W/m2
07:58 71.5 °F 70.6 °F 29.89 in ENE 1.0 mph 1.0 mph 97% 0.01 in VWS V14.01 W/m2
08:03 71.5 °F 70.6 °F 29.89 in Calm   1.0 mph 97% 0.01 in VWS V14.01 W/m2
08:08 71.5 °F 70.6 °F 29.90 in ENE 2.0 mph 2.0 mph 97% 0.01 in VWS V14.01 W/m2
08:13 71.6 °F 70.7 °F 29.90 in Calm   2.0 mph 97% 0.02 in VWS V14.01 W/m2
08:18 71.7 °F 70.8 °F 29.90 in ENE 2.0 mph 3.0 mph 97% 0.02 in VWS V14.01 W/m2
08:23 71.7 °F 70.8 °F 29.90 in Calm   2.0 mph 97% 0.03 in VWS V14.01 W/m2
08:28 71.7 °F 70.8 °F 29.90 in NE 2.0 mph 3.0 mph 97% 0.04 in VWS V14.01 W/m2
08:33 71.7 °F 70.8 °F 29.90 in Calm   2.0 mph 97% 0.04 in VWS V14.01 W/m2
08:38 71.8 °F 70.9 °F 29.90 in NE 1.0 mph 2.0 mph 97% 0.05 in VWS V14.01 W/m2
08:43 71.7 °F 70.8 °F 29.90 in Calm   3.0 mph 97% 0.05 in VWS V14.01 W/m2
08:46 71.7 °F 70.8 °F 29.90 in ENE 3.0 mph 3.0 mph 97% 0.06 in VWS V14.01 W/m2
08:51 71.7 °F 70.8 °F 29.90 in Calm   2.0 mph 97% 0.05 in VWS V14.01 W/m2
08:56 71.6 °F 70.7 °F 29.90 in NE 2.0 mph 4.0 mph 97% 0.06 in VWS V14.01 W/m2
09:01 71.7 °F 70.8 °F 29.90 in Calm   1.0 mph 97% 0.06 in VWS V14.01 W/m2
09:06 71.8 °F 70.9 °F 29.91 in North 1.0 mph 2.0 mph 97% 0.06 in VWS V14.01 W/m2
09:07 71.9 °F 71.0 °F 29.91 in NW 1.0 mph 2.0 mph 97% 0.06 in VWS V14.01 W/m2
09:12 72.0 °F 71.1 °F 29.91 in Calm   1.0 mph 97% 0.05 in VWS V14.01 W/m2
09:17 72.0 °F 71.1 °F 29.91 in Calm   3.0 mph 97% 0.05 in VWS V14.01 W/m2
09:22 71.9 °F 70.7 °F 29.91 in NNE 3.0 mph 3.0 mph 96% 0.05 in VWS V14.01 W/m2
09:27 71.9 °F 71.0 °F 29.90 in NNW 2.0 mph 3.0 mph 97% 0.05 in VWS V14.01 W/m2
09:32 72.1 °F 71.2 °F 29.90 in Calm   1.0 mph 97% 0.04 in VWS V14.01 W/m2
09:37 72.2 °F 71.3 °F 29.90 in NE 1.0 mph 2.0 mph 97% 0.04 in VWS V14.01 W/m2
09:42 72.2 °F 71.0 °F 29.90 in NE 1.0 mph 3.0 mph 96% 0.04 in VWS V14.01 W/m2
09:47 72.4 °F 71.5 °F 29.90 in Calm   3.0 mph 97% 0.04 in VWS V14.01 W/m2
09:52 72.6 °F 71.7 °F 29.90 in Calm   2.0 mph 97% 0.03 in VWS V14.01 W/m2
09:57 72.6 °F 71.7 °F 29.91 in WNW 1.0 mph 2.0 mph 97% 0.03 in VWS V14.01 W/m2
10:02 72.6 °F 71.7 °F 29.90 in Calm   1.0 mph 97% 0.02 in VWS V14.01 W/m2
10:07 72.7 °F 71.8 °F 29.91 in WNW 1.0 mph 2.0 mph 97% 0.02 in VWS V14.01 W/m2
10:12 72.9 °F 72.0 °F 29.91 in WNW 1.0 mph 1.0 mph 97% 0.02 in VWS V14.01 W/m2
10:17 73.0 °F 72.1 °F 29.91 in WNW 1.0 mph 4.0 mph 97% 0.02 in VWS V14.01 W/m2
10:22 73.0 °F 71.8 °F 29.91 in NW 2.0 mph 2.0 mph 96% 0.01 in VWS V14.01 W/m2
10:27 72.9 °F 71.7 °F 29.91 in NW 1.0 mph 5.0 mph 96% 0.01 in VWS V14.01 W/m2
10:32 72.9 °F 71.7 °F 29.91 in NNE 2.0 mph 2.0 mph 96% 0.01 in VWS V14.01 W/m2
10:37 73.0 °F 71.8 °F 29.91 in NW 1.0 mph 5.0 mph 96% 0.01 in VWS V14.01 W/m2
10:42 73.3 °F 72.1 °F 29.92 in North 1.0 mph 3.0 mph 96% 0.01 in VWS V14.01 W/m2
10:47 73.3 °F 72.1 °F 29.92 in Calm   3.0 mph 96% 0.01 in VWS V14.01 W/m2
10:52 73.3 °F 72.1 °F 29.92 in NW 1.0 mph 3.0 mph 96% 0.00 in VWS V14.01 W/m2
10:57 73.5 °F 72.3 °F 29.92 in Calm   4.0 mph 96% 0.00 in VWS V14.01 W/m2
11:02 73.6 °F 72.4 °F 29.92 in NE 2.0 mph 3.0 mph 96% 0.00 in VWS V14.01 W/m2
11:05 73.6 °F 72.1 °F 29.92 in NW 3.0 mph 5.0 mph 95% 0.01 in VWS V14.01 W/m2
11:10 73.6 °F 72.1 °F 29.91 in WNW 1.0 mph 6.0 mph 95% 0.03 in VWS V14.01 W/m2
11:14 73.7 °F 72.2 °F 29.91 in WNW 2.0 mph 5.0 mph 95% 0.04 in VWS V14.01 W/m2
11:19 73.8 °F 72.3 °F 29.91 in NNW 4.0 mph 7.0 mph 95% 0.04 in VWS V14.01 W/m2
11:24 74.1 °F 72.6 °F 29.91 in NNW 1.0 mph 6.0 mph 95% 0.04 in VWS V14.01 W/m2
11:29 74.2 °F 72.4 °F 29.91 in NNW 3.0 mph 8.0 mph 94% 0.04 in VWS V14.01 W/m2
11:34 74.2 °F 72.4 °F 29.91 in WNW 4.0 mph 6.0 mph 94% 0.04 in VWS V14.01 W/m2
11:39 74.2 °F 72.4 °F 29.91 in NW 2.0 mph 7.0 mph 94% 0.04 in VWS V14.01 W/m2
11:44 74.5 °F 72.7 °F 29.91 in Calm   5.0 mph 94% 0.04 in VWS V14.01 W/m2
11:49 74.8 °F 72.3 °F 29.90 in WNW 1.0 mph 6.0 mph 92% 0.04 in VWS V14.01 W/m2
11:54 75.0 °F 72.2 °F 29.90 in NW 1.0 mph 8.0 mph 91% 0.04 in VWS V14.01 W/m2
11:59 75.2 °F 72.1 °F 29.90 in NNW 3.0 mph 8.0 mph 90% 0.04 in VWS V14.01 W/m2
12:04 75.3 °F 72.2 °F 29.90 in NNW 4.0 mph 8.0 mph 90% 0.04 in VWS V14.01 W/m2
12:09 75.5 °F 72.0 °F 29.90 in NNW 3.0 mph 8.0 mph 89% 0.04 in VWS V14.01 W/m2
12:14 75.7 °F 71.9 °F 29.89 in NNW 4.0 mph 9.0 mph 88% 0.00 in VWS V14.01 W/m2
12:19 76.1 °F 72.3 °F 29.89 in NW 3.0 mph 9.0 mph 88% 0.00 in VWS V14.01 W/m2
12:24 76.4 °F 72.2 °F 29.89 in NNE 3.0 mph 8.0 mph 87% 0.00 in VWS V14.01 W/m2
12:29 76.9 °F 72.4 °F 29.90 in NW 1.0 mph 8.0 mph 86% 0.00 in VWS V14.01 W/m2
12:34 77.1 °F 72.2 °F 29.89 in WNW 2.0 mph 6.0 mph 85% 0.00 in VWS V14.01 W/m2
12:39 77.2 °F 72.3 °F 29.89 in East 1.0 mph 6.0 mph 85% 0.00 in VWS V14.01 W/m2
12:44 77.5 °F 72.6 °F 29.89 in NNW 3.0 mph 7.0 mph 85% 0.00 in VWS V14.01 W/m2
12:49 78.0 °F 72.8 °F 29.89 in NW 2.0 mph 7.0 mph 84% 0.00 in VWS V14.01 W/m2
12:54 78.3 °F 72.4 °F 29.88 in NNE 3.0 mph 8.0 mph 82% 0.00 in VWS V14.01 W/m2
12:59 78.5 °F 72.2 °F 29.88 in ENE 3.0 mph 8.0 mph 81% 0.00 in VWS V14.01 W/m2
13:04 78.6 °F 72.7 °F 29.88 in NNE 2.0 mph 5.0 mph 82% 0.00 in VWS V14.01 W/m2
13:09 79.0 °F 72.7 °F 29.88 in NW 4.0 mph 5.0 mph 81% 0.00 in VWS V14.01 W/m2
13:14 79.1 °F 72.0 °F 29.88 in West 1.0 mph 6.0 mph 79% 0.00 in VWS V14.01 W/m2
13:19 79.3 °F 72.6 °F 29.88 in WNW 2.0 mph 6.0 mph 80% 0.00 in VWS V14.01 W/m2
13:24 79.4 °F 71.9 °F 29.88 in NW 2.0 mph 7.0 mph 78% 0.00 in VWS V14.01 W/m2
13:29 79.6 °F 72.1 °F 29.88 in SSW 1.0 mph 7.0 mph 78% 0.00 in VWS V14.01 W/m2
13:34 80.3 °F 72.8 °F 29.87 in Calm   3.0 mph 78% 0.00 in VWS V14.01 W/m2
13:39 80.4 °F 72.2 °F 29.88 in South 1.0 mph 5.0 mph 76% 0.00 in VWS V14.01 W/m2
13:44 80.1 °F 72.2 °F 29.87 in North 3.0 mph 8.0 mph 77% 0.00 in VWS V14.01 W/m2
13:49 80.3 °F 72.1 °F 29.87 in NNW 3.0 mph 10.0 mph 76% 0.00 in VWS V14.01 W/m2
13:54 80.4 °F 72.9 °F 29.87 in West 3.0 mph 7.0 mph 78% 0.00 in VWS V14.01 W/m2
Lake Mary, FL, USA
Compliments of Weather Underground